sensor_id;sensor_type;location;lat;lon;timestamp;pressure;altitude;pressure_sealevel;temperature;humidity
46464;BME280;32161;48.148;-1.554;2024-03-02T00:01:43;98858.59;;;5.97;100.00
46464;BME280;32161;48.148;-1.554;2024-03-02T00:04:11;98862.09;;;5.97;100.00
46464;BME280;32161;48.148;-1.554;2024-03-02T00:06:38;98856.28;;;6.05;100.00
46464;BME280;32161;48.148;-1.554;2024-03-02T00:09:09;98853.31;;;5.90;100.00
46464;BME280;32161;48.148;-1.554;2024-03-02T00:11:39;98857.75;;;5.79;100.00
46464;BME280;32161;48.148;-1.554;2024-03-02T00:14:06;98868.28;;;5.64;100.00
46464;BME280;32161;48.148;-1.554;2024-03-02T00:16:34;98878.50;;;5.79;100.00
46464;BME280;32161;48.148;-1.554;2024-03-02T00:19:03;98869.16;;;6.37;100.00
46464;BME280;32161;48.148;-1.554;2024-03-02T00:21:31;98856.13;;;5.95;100.00
46464;BME280;32161;48.148;-1.554;2024-03-02T00:24:00;98854.47;;;6.28;100.00
46464;BME280;32161;48.148;-1.554;2024-03-02T00:26:30;98860.28;;;6.20;100.00
46464;BME280;32161;48.148;-1.554;2024-03-02T00:28:58;98856.56;;;6.04;100.00
46464;BME280;32161;48.148;-1.554;2024-03-02T00:31:26;98851.81;;;5.94;100.00
46464;BME280;32161;48.148;-1.554;2024-03-02T00:33:54;98854.66;;;6.04;100.00
46464;BME280;32161;48.148;-1.554;2024-03-02T00:36:26;98855.00;;;6.08;100.00
46464;BME280;32161;48.148;-1.554;2024-03-02T00:38:54;98838.72;;;6.03;100.00
46464;BME280;32161;48.148;-1.554;2024-03-02T00:41:26;98831.69;;;6.02;100.00
46464;BME280;32161;48.148;-1.554;2024-03-02T00:44:00;98826.84;;;5.87;100.00
46464;BME280;32161;48.148;-1.554;2024-03-02T00:46:33;98819.56;;;5.87;100.00
46464;BME280;32161;48.148;-1.554;2024-03-02T00:49:04;98818.28;;;6.07;100.00
46464;BME280;32161;48.148;-1.554;2024-03-02T00:51:33;98815.03;;;6.05;100.00
46464;BME280;32161;48.148;-1.554;2024-03-02T00:54:03;98819.78;;;5.98;100.00
46464;BME280;32161;48.148;-1.554;2024-03-02T00:56:31;98812.00;;;6.01;100.00
46464;BME280;32161;48.148;-1.554;2024-03-02T00:59:01;98812.75;;;5.97;100.00
46464;BME280;32161;48.148;-1.554;2024-03-02T01:01:28;98807.16;;;6.03;100.00
46464;BME280;32161;48.148;-1.554;2024-03-02T01:03:56;98795.63;;;5.91;100.00
46464;BME280;32161;48.148;-1.554;2024-03-02T01:06:23;98810.34;;;5.83;100.00
46464;BME280;32161;48.148;-1.554;2024-03-02T01:08:51;98812.06;;;5.90;100.00
46464;BME280;32161;48.148;-1.554;2024-03-02T01:11:19;98813.84;;;6.18;100.00
46464;BME280;32161;48.148;-1.554;2024-03-02T01:13:48;98820.63;;;6.20;100.00
46464;BME280;32161;48.148;-1.554;2024-03-02T01:16:17;98814.97;;;6.22;100.00
46464;BME280;32161;48.148;-1.554;2024-03-02T01:18:44;98821.84;;;6.51;100.00
46464;BME280;32161;48.148;-1.554;2024-03-02T01:21:12;98820.13;;;6.45;100.00
46464;BME280;32161;48.148;-1.554;2024-03-02T01:23:40;98813.91;;;6.45;100.00
46464;BME280;32161;48.148;-1.554;2024-03-02T01:26:07;98812.16;;;6.33;100.00
46464;BME280;32161;48.148;-1.554;2024-03-02T01:28:35;98795.78;;;6.18;100.00
46464;BME280;32161;48.148;-1.554;2024-03-02T01:31:03;98799.91;;;6.26;100.00
46464;BME280;32161;48.148;-1.554;2024-03-02T01:33:32;98795.84;;;6.23;100.00
46464;BME280;32161;48.148;-1.554;2024-03-02T01:35:59;98793.97;;;6.24;100.00
46464;BME280;32161;48.148;-1.554;2024-03-02T01:38:27;98785.56;;;6.20;100.00
46464;BME280;32161;48.148;-1.554;2024-03-02T01:40:55;98773.56;;;6.11;100.00
46464;BME280;32161;48.148;-1.554;2024-03-02T01:43:24;98766.69;;;6.20;100.00
46464;BME280;32161;48.148;-1.554;2024-03-02T01:45:52;98771.31;;;6.25;100.00
46464;BME280;32161;48.148;-1.554;2024-03-02T01:48:20;98780.69;;;6.39;100.00
46464;BME280;32161;48.148;-1.554;2024-03-02T01:50:49;98772.38;;;6.24;100.00
46464;BME280;32161;48.148;-1.554;2024-03-02T01:53:16;98776.06;;;6.18;100.00
46464;BME280;32161;48.148;-1.554;2024-03-02T01:55:45;98773.19;;;6.24;100.00
46464;BME280;32161;48.148;-1.554;2024-03-02T01:58:12;98777.78;;;6.24;100.00
46464;BME280;32161;48.148;-1.554;2024-03-02T02:00:40;98764.53;;;6.00;100.00
46464;BME280;32161;48.148;-1.554;2024-03-02T02:03:08;98770.03;;;6.10;100.00
46464;BME280;32161;48.148;-1.554;2024-03-02T02:05:35;98772.25;;;6.14;100.00
46464;BME280;32161;48.148;-1.554;2024-03-02T02:08:05;98766.09;;;6.18;100.00
46464;BME280;32161;48.148;-1.554;2024-03-02T02:10:33;98754.38;;;6.07;100.00
46464;BME280;32161;48.148;-1.554;2024-03-02T02:13:01;98753.72;;;6.22;100.00
46464;BME280;32161;48.148;-1.554;2024-03-02T02:15:30;98743.22;;;6.21;100.00
46464;BME280;32161;48.148;-1.554;2024-03-02T02:17:58;98746.03;;;6.09;100.00
46464;BME280;32161;48.148;-1.554;2024-03-02T02:20:26;98736.75;;;6.00;100.00
46464;BME280;32161;48.148;-1.554;2024-03-02T02:22:59;98735.34;;;5.97;100.00
46464;BME280;32161;48.148;-1.554;2024-03-02T02:25:27;98736.69;;;6.17;100.00
46464;BME280;32161;48.148;-1.554;2024-03-02T02:27:56;98734.66;;;6.29;100.00
46464;BME280;32161;48.148;-1.554;2024-03-02T02:30:26;98732.72;;;6.24;100.00
46464;BME280;32161;48.148;-1.554;2024-03-02T02:32:54;98734.84;;;6.22;100.00
46464;BME280;32161;48.148;-1.554;2024-03-02T02:35:22;98734.25;;;6.15;100.00
46464;BME280;32161;48.148;-1.554;2024-03-02T02:37:52;98741.31;;;6.43;100.00
46464;BME280;32161;48.148;-1.554;2024-03-02T02:40:21;98720.41;;;6.55;100.00
46464;BME280;32161;48.148;-1.554;2024-03-02T02:42:49;98715.97;;;6.71;100.00
46464;BME280;32161;48.148;-1.554;2024-03-02T02:45:18;98707.69;;;6.51;100.00
46464;BME280;32161;48.148;-1.554;2024-03-02T02:47:45;98709.47;;;6.45;100.00
46464;BME280;32161;48.148;-1.554;2024-03-02T02:50:14;98705.47;;;6.48;100.00
46464;BME280;32161;48.148;-1.554;2024-03-02T02:52:42;98705.88;;;6.34;100.00
46464;BME280;32161;48.148;-1.554;2024-03-02T02:55:12;98700.31;;;6.19;100.00
46464;BME280;32161;48.148;-1.554;2024-03-02T02:57:43;98686.72;;;6.36;100.00
46464;BME280;32161;48.148;-1.554;2024-03-02T03:00:13;98683.06;;;6.47;100.00
46464;BME280;32161;48.148;-1.554;2024-03-02T03:02:42;98678.38;;;6.65;100.00
46464;BME280;32161;48.148;-1.554;2024-03-02T03:05:11;98679.66;;;6.57;100.00
46464;BME280;32161;48.148;-1.554;2024-03-02T03:07:40;98665.03;;;6.53;100.00
46464;BME280;32161;48.148;-1.554;2024-03-02T03:10:08;98666.13;;;6.52;100.00
46464;BME280;32161;48.148;-1.554;2024-03-02T03:12:36;98664.88;;;6.38;100.00
46464;BME280;32161;48.148;-1.554;2024-03-02T03:15:06;98665.59;;;6.28;100.00
46464;BME280;32161;48.148;-1.554;2024-03-02T03:17:34;98676.25;;;6.40;100.00
46464;BME280;32161;48.148;-1.554;2024-03-02T03:20:04;98667.72;;;6.26;100.00
46464;BME280;32161;48.148;-1.554;2024-03-02T03:22:35;98665.66;;;6.11;100.00
46464;BME280;32161;48.148;-1.554;2024-03-02T03:25:04;98662.78;;;6.18;100.00
46464;BME280;32161;48.148;-1.554;2024-03-02T03:27:31;98665.19;;;5.92;100.00
46464;BME280;32161;48.148;-1.554;2024-03-02T03:29:59;98660.72;;;6.03;100.00
46464;BME280;32161;48.148;-1.554;2024-03-02T03:32:28;98651.06;;;6.07;100.00
46464;BME280;32161;48.148;-1.554;2024-03-02T03:34:55;98654.69;;;6.18;100.00
46464;BME280;32161;48.148;-1.554;2024-03-02T03:37:23;98649.38;;;6.23;100.00
46464;BME280;32161;48.148;-1.554;2024-03-02T03:39:52;98640.56;;;6.10;100.00
46464;BME280;32161;48.148;-1.554;2024-03-02T03:42:20;98638.91;;;6.04;100.00
46464;BME280;32161;48.148;-1.554;2024-03-02T03:44:48;98632.19;;;6.34;100.00
46464;BME280;32161;48.148;-1.554;2024-03-02T03:47:15;98636.94;;;6.22;100.00
46464;BME280;32161;48.148;-1.554;2024-03-02T03:49:44;98634.31;;;6.27;100.00
46464;BME280;32161;48.148;-1.554;2024-03-02T03:52:12;98643.66;;;6.19;100.00
46464;BME280;32161;48.148;-1.554;2024-03-02T03:54:39;98677.22;;;6.06;100.00
46464;BME280;32161;48.148;-1.554;2024-03-02T03:57:09;98693.13;;;6.30;100.00
46464;BME280;32161;48.148;-1.554;2024-03-02T03:59:36;98680.41;;;6.25;100.00
46464;BME280;32161;48.148;-1.554;2024-03-02T04:02:04;98681.03;;;6.32;100.00
46464;BME280;32161;48.148;-1.554;2024-03-02T04:04:32;98685.88;;;6.30;100.00
46464;BME280;32161;48.148;-1.554;2024-03-02T04:07:01;98665.97;;;6.36;100.00
46464;BME280;32161;48.148;-1.554;2024-03-02T04:09:28;98665.97;;;6.36;100.00
46464;BME280;32161;48.148;-1.554;2024-03-02T04:11:56;98670.09;;;6.22;100.00
46464;BME280;32161;48.148;-1.554;2024-03-02T04:14:23;98675.97;;;6.41;100.00
46464;BME280;32161;48.148;-1.554;2024-03-02T04:16:51;98649.53;;;6.38;100.00
46464;BME280;32161;48.148;-1.554;2024-03-02T04:19:19;98653.22;;;6.32;100.00
46464;BME280;32161;48.148;-1.554;2024-03-02T04:21:46;98651.19;;;6.17;100.00
46464;BME280;32161;48.148;-1.554;2024-03-02T04:24:15;98648.69;;;6.38;100.00
46464;BME280;32161;48.148;-1.554;2024-03-02T04:26:44;98654.63;;;6.13;100.00
46464;BME280;32161;48.148;-1.554;2024-03-02T04:29:11;98644.66;;;6.13;100.00
46464;BME280;32161;48.148;-1.554;2024-03-02T04:31:39;98659.03;;;5.97;100.00
46464;BME280;32161;48.148;-1.554;2024-03-02T04:34:06;98664.16;;;5.98;100.00
46464;BME280;32161;48.148;-1.554;2024-03-02T04:36:34;98651.75;;;5.97;100.00
46464;BME280;32161;48.148;-1.554;2024-03-02T04:39:02;98649.63;;;5.99;100.00
46464;BME280;32161;48.148;-1.554;2024-03-02T04:41:32;98651.81;;;6.02;100.00
46464;BME280;32161;48.148;-1.554;2024-03-02T04:43:59;98655.84;;;6.00;100.00
46464;BME280;32161;48.148;-1.554;2024-03-02T04:46:27;98651.28;;;6.00;100.00
46464;BME280;32161;48.148;-1.554;2024-03-02T04:48:54;98654.00;;;6.05;100.00
46464;BME280;32161;48.148;-1.554;2024-03-02T04:51:23;98651.31;;;6.05;100.00
46464;BME280;32161;48.148;-1.554;2024-03-02T04:53:50;98656.03;;;6.15;100.00
46464;BME280;32161;48.148;-1.554;2024-03-02T04:56:18;98658.28;;;6.01;100.00
46464;BME280;32161;48.148;-1.554;2024-03-02T04:59:11;98653.53;;;6.08;100.00
46464;BME280;32161;48.148;-1.554;2024-03-02T05:01:39;98656.97;;;6.04;100.00
46464;BME280;32161;48.148;-1.554;2024-03-02T05:04:06;98647.81;;;6.05;100.00
46464;BME280;32161;48.148;-1.554;2024-03-02T05:06:37;98642.09;;;6.01;100.00
46464;BME280;32161;48.148;-1.554;2024-03-02T05:09:04;98644.22;;;6.21;100.00
46464;BME280;32161;48.148;-1.554;2024-03-02T05:11:32;98636.94;;;6.22;100.00
46464;BME280;32161;48.148;-1.554;2024-03-02T05:14:16;98650.88;;;6.14;100.00
46464;BME280;32161;48.148;-1.554;2024-03-02T05:16:42;98657.28;;;6.07;100.00
46464;BME280;32161;48.148;-1.554;2024-03-02T05:19:10;98654.38;;;6.14;100.00
46464;BME280;32161;48.148;-1.554;2024-03-02T05:21:37;98662.16;;;6.10;100.00
46464;BME280;32161;48.148;-1.554;2024-03-02T05:24:05;98657.34;;;6.13;100.00
46464;BME280;32161;48.148;-1.554;2024-03-02T05:26:33;98672.56;;;6.24;100.00
46464;BME280;32161;48.148;-1.554;2024-03-02T05:29:00;98672.88;;;6.27;100.00
46464;BME280;32161;48.148;-1.554;2024-03-02T05:31:30;98668.78;;;6.25;100.00
46464;BME280;32161;48.148;-1.554;2024-03-02T05:33:57;98672.56;;;6.24;100.00
46464;BME280;32161;48.148;-1.554;2024-03-02T05:36:25;98687.00;;;6.13;100.00
46464;BME280;32161;48.148;-1.554;2024-03-02T05:38:53;98678.72;;;5.97;100.00
46464;BME280;32161;48.148;-1.554;2024-03-02T05:41:20;98683.22;;;6.14;100.00
46464;BME280;32161;48.148;-1.554;2024-03-02T05:43:48;98675.78;;;6.21;100.00
46464;BME280;32161;48.148;-1.554;2024-03-02T05:46:15;98670.88;;;6.18;100.00
46464;BME280;32161;48.148;-1.554;2024-03-02T05:48:44;98673.06;;;6.21;100.00
46464;BME280;32161;48.148;-1.554;2024-03-02T05:51:12;98673.69;;;6.28;100.00
46464;BME280;32161;48.148;-1.554;2024-03-02T05:53:39;98671.03;;;6.33;100.00
46464;BME280;32161;48.148;-1.554;2024-03-02T05:56:08;98678.28;;;6.27;100.00
46464;BME280;32161;48.148;-1.554;2024-03-02T05:58:35;98676.44;;;6.33;100.00
46464;BME280;32161;48.148;-1.554;2024-03-02T06:01:15;98669.75;;;6.14;100.00
46464;BME280;32161;48.148;-1.554;2024-03-02T06:03:46;98664.53;;;6.29;100.00
46464;BME280;32161;48.148;-1.554;2024-03-02T06:06:13;98659.59;;;6.21;100.00
46464;BME280;32161;48.148;-1.554;2024-03-02T06:08:41;98668.00;;;6.24;100.00
46464;BME280;32161;48.148;-1.554;2024-03-02T06:11:08;98677.38;;;6.22;100.00
46464;BME280;32161;48.148;-1.554;2024-03-02T06:13:36;98679.16;;;6.11;100.00
46464;BME280;32161;48.148;-1.554;2024-03-02T06:16:04;98675.50;;;6.22;100.00
46464;BME280;32161;48.148;-1.554;2024-03-02T06:18:32;98670.88;;;6.18;100.00
46464;BME280;32161;48.148;-1.554;2024-03-02T06:21:01;98665.97;;;6.15;100.00
46464;BME280;32161;48.148;-1.554;2024-03-02T06:23:29;98665.28;;;6.24;100.00
46464;BME280;32161;48.148;-1.554;2024-03-02T06:25:56;98673.88;;;6.21;100.00
46464;BME280;32161;48.148;-1.554;2024-03-02T06:28:24;98652.50;;;6.15;100.00
46464;BME280;32161;48.148;-1.554;2024-03-02T06:30:51;98660.03;;;6.13;100.00
46464;BME280;32161;48.148;-1.554;2024-03-02T06:33:19;98651.03;;;6.29;100.00
46464;BME280;32161;48.148;-1.554;2024-03-02T06:35:46;98640.81;;;6.31;100.00
46464;BME280;32161;48.148;-1.554;2024-03-02T06:38:16;98656.13;;;6.25;100.00
46464;BME280;32161;48.148;-1.554;2024-03-02T06:40:44;98663.09;;;6.21;100.00
46464;BME280;32161;48.148;-1.554;2024-03-02T06:43:11;98667.50;;;6.27;100.00
46464;BME280;32161;48.148;-1.554;2024-03-02T06:45:39;98662.78;;;6.18;100.00
46464;BME280;32161;48.148;-1.554;2024-03-02T06:48:07;98665.56;;;6.23;100.00
46464;BME280;32161;48.148;-1.554;2024-03-02T06:50:34;98674.38;;;6.18;100.00
46464;BME280;32161;48.148;-1.554;2024-03-02T06:53:02;98676.84;;;6.20;100.00
46464;BME280;32161;48.148;-1.554;2024-03-02T06:55:32;98669.25;;;6.17;100.00
46464;BME280;32161;48.148;-1.554;2024-03-02T06:57:59;98665.75;;;6.16;100.00
46464;BME280;32161;48.148;-1.554;2024-03-02T07:00:27;98672.44;;;6.14;100.00
46464;BME280;32161;48.148;-1.554;2024-03-02T07:02:55;98667.88;;;6.14;100.00
46464;BME280;32161;48.148;-1.554;2024-03-02T07:05:22;98677.03;;;6.13;100.00
46464;BME280;32161;48.148;-1.554;2024-03-02T07:07:50;98672.44;;;6.14;100.00
46464;BME280;32161;48.148;-1.554;2024-03-02T07:10:17;98662.97;;;6.11;100.00
46464;BME280;32161;48.148;-1.554;2024-03-02T07:12:46;98675.63;;;6.10;100.00
46464;BME280;32161;48.148;-1.554;2024-03-02T07:15:16;98673.53;;;6.13;100.00
46464;BME280;32161;48.148;-1.554;2024-03-02T07:18:10;98670.88;;;6.18;100.00
46464;BME280;32161;48.148;-1.554;2024-03-02T07:20:38;98670.38;;;6.21;100.00
46464;BME280;32161;48.148;-1.554;2024-03-02T07:23:05;98681.16;;;6.21;100.00
46464;BME280;32161;48.148;-1.554;2024-03-02T07:25:33;98688.69;;;6.19;100.00
46464;BME280;32161;48.148;-1.554;2024-03-02T07:28:02;98685.44;;;6.17;100.00
46464;BME280;32161;48.148;-1.554;2024-03-02T07:30:30;98689.75;;;6.18;100.00
46464;BME280;32161;48.148;-1.554;2024-03-02T07:32:58;98693.88;;;6.25;100.00
46464;BME280;32161;48.148;-1.554;2024-03-02T07:35:25;98694.47;;;6.27;100.00
46464;BME280;32161;48.148;-1.554;2024-03-02T07:37:53;98700.63;;;6.23;100.00
46464;BME280;32161;48.148;-1.554;2024-03-02T07:40:21;98694.19;;;6.29;100.00
46464;BME280;32161;48.148;-1.554;2024-03-02T07:42:49;98682.97;;;6.37;100.00
46464;BME280;32161;48.148;-1.554;2024-03-02T07:45:18;98674.41;;;6.45;100.00
46464;BME280;32161;48.148;-1.554;2024-03-02T07:47:46;98671.56;;;6.57;100.00
46464;BME280;32161;48.148;-1.554;2024-03-02T07:50:16;98677.69;;;6.47;100.00
46464;BME280;32161;48.148;-1.554;2024-03-02T07:52:43;98674.63;;;6.39;100.00
46464;BME280;32161;48.148;-1.554;2024-03-02T07:55:11;98682.44;;;6.40;100.00
46464;BME280;32161;48.148;-1.554;2024-03-02T07:57:39;98680.75;;;6.34;100.00
46464;BME280;32161;48.148;-1.554;2024-03-02T08:00:08;98684.47;;;6.28;100.00
46464;BME280;32161;48.148;-1.554;2024-03-02T08:02:38;98685.34;;;6.33;100.00
46464;BME280;32161;48.148;-1.554;2024-03-02T08:05:06;98690.81;;;6.39;100.00
46464;BME280;32161;48.148;-1.554;2024-03-02T08:07:34;98705.66;;;6.41;100.00
46464;BME280;32161;48.148;-1.554;2024-03-02T08:10:01;98692.34;;;6.56;100.00
46464;BME280;32161;48.148;-1.554;2024-03-02T08:12:29;98700.50;;;6.62;100.00
46464;BME280;32161;48.148;-1.554;2024-03-02T08:14:56;98701.66;;;6.71;100.00
46464;BME280;32161;48.148;-1.554;2024-03-02T08:17:24;98712.56;;;6.81;100.00
46464;BME280;32161;48.148;-1.554;2024-03-02T08:19:53;98709.72;;;6.66;100.00
46464;BME280;32161;48.148;-1.554;2024-03-02T08:22:21;98717.22;;;6.91;100.00
46464;BME280;32161;48.148;-1.554;2024-03-02T08:24:49;98715.28;;;6.81;100.00
46464;BME280;32161;48.148;-1.554;2024-03-02T08:27:16;98721.69;;;6.75;100.00
46464;BME280;32161;48.148;-1.554;2024-03-02T08:29:44;98722.50;;;6.75;100.00
46464;BME280;32161;48.148;-1.554;2024-03-02T08:32:12;98723.06;;;6.77;100.00
46464;BME280;32161;48.148;-1.554;2024-03-02T08:34:39;98721.47;;;6.81;100.00
46464;BME280;32161;48.148;-1.554;2024-03-02T08:37:08;98726.16;;;6.91;100.00
46464;BME280;32161;48.148;-1.554;2024-03-02T08:39:36;98723.91;;;6.83;100.00
46464;BME280;32161;48.148;-1.554;2024-03-02T08:42:04;98727.88;;;6.75;100.00
46464;BME280;32161;48.148;-1.554;2024-03-02T08:44:32;98717.34;;;7.01;100.00
46464;BME280;32161;48.148;-1.554;2024-03-02T08:47:00;98710.47;;;6.88;100.00
46464;BME280;32161;48.148;-1.554;2024-03-02T08:49:27;98705.97;;;6.99;100.00
46464;BME280;32161;48.148;-1.554;2024-03-02T08:51:55;98699.13;;;6.91;100.00
46464;BME280;32161;48.148;-1.554;2024-03-02T08:54:24;98704.81;;;6.90;100.00
46464;BME280;32161;48.148;-1.554;2024-03-02T08:56:52;98698.53;;;6.84;100.00
46464;BME280;32161;48.148;-1.554;2024-03-02T08:59:19;98698.25;;;6.80;100.00
46464;BME280;32161;48.148;-1.554;2024-03-02T09:01:47;98696.09;;;6.82;100.00
46464;BME280;32161;48.148;-1.554;2024-03-02T09:04:15;98707.63;;;6.73;100.00
46464;BME280;32161;48.148;-1.554;2024-03-02T09:06:42;98717.03;;;6.70;100.00
46464;BME280;32161;48.148;-1.554;2024-03-02T09:09:10;98719.97;;;6.69;100.00
46464;BME280;32161;48.148;-1.554;2024-03-02T09:11:39;98715.47;;;6.74;100.00
46464;BME280;32161;48.148;-1.554;2024-03-02T09:14:07;98720.00;;;6.96;100.00
46464;BME280;32161;48.148;-1.554;2024-03-02T09:16:34;98722.41;;;6.92;100.00
46464;BME280;32161;48.148;-1.554;2024-03-02T09:19:02;98726.44;;;6.95;100.00
46464;BME280;32161;48.148;-1.554;2024-03-02T09:21:29;98728.38;;;6.99;100.00
46464;BME280;32161;48.148;-1.554;2024-03-02T09:23:57;98725.59;;;6.89;100.00
46464;BME280;32161;48.148;-1.554;2024-03-02T09:26:24;98724.75;;;7.16;100.00
46464;BME280;32161;48.148;-1.554;2024-03-02T09:28:53;98725.75;;;7.04;100.00
46464;BME280;32161;48.148;-1.554;2024-03-02T09:31:21;98721.75;;;7.12;100.00
46464;BME280;32161;48.148;-1.554;2024-03-02T09:33:49;98717.34;;;7.01;100.00
46464;BME280;32161;48.148;-1.554;2024-03-02T09:36:21;98719.22;;;7.00;100.00
46464;BME280;32161;48.148;-1.554;2024-03-02T09:38:49;98727.53;;;7.26;100.00
46464;BME280;32161;48.148;-1.554;2024-03-02T09:41:16;98727.03;;;7.34;100.00
46464;BME280;32161;48.148;-1.554;2024-03-02T09:43:44;98721.38;;;7.30;100.00
46464;BME280;32161;48.148;-1.554;2024-03-02T09:46:13;98728.22;;;7.43;100.00
46464;BME280;32161;48.148;-1.554;2024-03-02T09:48:41;98725.50;;;7.43;100.00
46464;BME280;32161;48.148;-1.554;2024-03-02T09:51:09;98731.75;;;7.49;100.00
46464;BME280;32161;48.148;-1.554;2024-03-02T09:53:37;98728.47;;;7.42;100.00
46464;BME280;32161;48.148;-1.554;2024-03-02T09:56:05;98725.03;;;7.51;100.00
46464;BME280;32161;48.148;-1.554;2024-03-02T09:58:33;98715.69;;;7.69;100.00
46464;BME280;32161;48.148;-1.554;2024-03-02T10:01:01;98725.16;;;7.72;100.00
46464;BME280;32161;48.148;-1.554;2024-03-02T10:03:30;98707.09;;;7.77;100.00
46464;BME280;32161;48.148;-1.554;2024-03-02T10:06:22;98721.41;;;7.73;100.00
46464;BME280;32161;48.148;-1.554;2024-03-02T10:08:50;98715.97;;;7.73;100.00
46464;BME280;32161;48.148;-1.554;2024-03-02T10:11:28;98710.91;;;7.87;100.00
46464;BME280;32161;48.148;-1.554;2024-03-02T10:14:08;98712.78;;;7.81;100.00
46464;BME280;32161;48.148;-1.554;2024-03-02T10:16:37;98728.16;;;7.75;100.00
46464;BME280;32161;48.148;-1.554;2024-03-02T10:19:21;98725.41;;;7.65;100.00
46464;BME280;32161;48.148;-1.554;2024-03-02T10:21:50;98725.16;;;7.72;100.00
46464;BME280;32161;48.148;-1.554;2024-03-02T10:24:19;98726.25;;;7.76;100.00
46464;BME280;32161;48.148;-1.554;2024-03-02T10:26:47;98716.06;;;7.88;100.00
46464;BME280;32161;48.148;-1.554;2024-03-02T10:29:16;98722.31;;;7.94;100.00
46464;BME280;32161;48.148;-1.554;2024-03-02T10:31:45;98730.78;;;8.07;100.00
46464;BME280;32161;48.148;-1.554;2024-03-02T10:34:13;98733.25;;;8.19;100.00
46464;BME280;32161;48.148;-1.554;2024-03-02T10:36:44;98729.97;;;8.12;100.00
46464;BME280;32161;48.148;-1.554;2024-03-02T10:39:14;98735.47;;;8.27;100.00
46464;BME280;32161;48.148;-1.554;2024-03-02T10:41:42;98725.16;;;8.24;100.00
46464;BME280;32161;48.148;-1.554;2024-03-02T10:44:11;98734.19;;;8.45;100.00
46464;BME280;32161;48.148;-1.554;2024-03-02T10:46:39;98743.91;;;8.41;100.00
46464;BME280;32161;48.148;-1.554;2024-03-02T10:49:07;98738.50;;;8.41;100.00
46464;BME280;32161;48.148;-1.554;2024-03-02T10:51:35;98746.91;;;8.40;100.00
46464;BME280;32161;48.148;-1.554;2024-03-02T10:54:05;98747.72;;;8.40;100.00
46464;BME280;32161;48.148;-1.554;2024-03-02T10:56:39;98743.16;;;8.46;100.00
46464;BME280;32161;48.148;-1.554;2024-03-02T10:59:15;98748.81;;;8.44;100.00
46464;BME280;32161;48.148;-1.554;2024-03-02T11:01:46;98745.06;;;8.50;100.00
46464;BME280;32161;48.148;-1.554;2024-03-02T11:04:18;98745.34;;;8.54;100.00
46464;BME280;32161;48.148;-1.554;2024-03-02T11:06:49;98744.78;;;8.57;100.00
46464;BME280;32161;48.148;-1.554;2024-03-02T11:09:21;98744.53;;;8.59;100.00
46464;BME280;32161;48.148;-1.554;2024-03-02T11:12:00;98744.81;;;8.62;100.00
46464;BME280;32161;48.148;-1.554;2024-03-02T11:14:31;98745.94;;;8.76;100.00
46464;BME280;32161;48.148;-1.554;2024-03-02T11:17:02;98738.34;;;8.84;100.00
46464;BME280;32161;48.148;-1.554;2024-03-02T11:19:32;98738.66;;;8.92;100.00
46464;BME280;32161;48.148;-1.554;2024-03-02T11:22:00;98724.56;;;9.11;100.00
46464;BME280;32161;48.148;-1.554;2024-03-02T11:24:32;98731.34;;;9.18;100.00
46464;BME280;32161;48.148;-1.554;2024-03-02T11:27:04;98732.69;;;9.26;100.00
46464;BME280;32161;48.148;-1.554;2024-03-02T11:29:46;98726.19;;;9.32;100.00
46464;BME280;32161;48.148;-1.554;2024-03-02T11:32:20;98737.59;;;9.39;100.00
46464;BME280;32161;48.148;-1.554;2024-03-02T11:34:50;98724.03;;;9.49;100.00
46464;BME280;32161;48.148;-1.554;2024-03-02T11:37:19;98721.84;;;9.57;100.00
46464;BME280;32161;48.148;-1.554;2024-03-02T11:39:50;98725.38;;;9.47;100.00
46464;BME280;32161;48.148;-1.554;2024-03-02T11:42:18;98731.06;;;9.66;100.00
46464;BME280;32161;48.148;-1.554;2024-03-02T11:44:47;98734.56;;;9.71;100.00
46464;BME280;32161;48.148;-1.554;2024-03-02T11:47:16;98728.06;;;9.77;100.00
46464;BME280;32161;48.148;-1.554;2024-03-02T11:49:46;98730.47;;;9.99;100.00
46464;BME280;32161;48.148;-1.554;2024-03-02T11:52:16;98718.75;;;10.04;100.00
46464;BME280;32161;48.148;-1.554;2024-03-02T11:54:45;98724.75;;;9.96;100.00
46464;BME280;32161;48.148;-1.554;2024-03-02T11:57:18;98719.06;;;9.87;100.00
46464;BME280;32161;48.148;-1.554;2024-03-02T11:59:46;98724.78;;;9.75;100.00
46464;BME280;32161;48.148;-1.554;2024-03-02T12:02:16;98721.81;;;9.77;100.00
46464;BME280;32161;48.148;-1.554;2024-03-02T12:04:54;98725.91;;;9.69;100.00
46464;BME280;32161;48.148;-1.554;2024-03-02T12:07:24;98722.66;;;9.72;100.00
46464;BME280;32161;48.148;-1.554;2024-03-02T12:10:00;98732.69;;;9.77;100.00
46464;BME280;32161;48.148;-1.554;2024-03-02T12:12:30;98715.56;;;9.82;100.00
46464;BME280;32161;48.148;-1.554;2024-03-02T12:14:58;98725.88;;;9.79;100.00
46464;BME280;32161;48.148;-1.554;2024-03-02T12:17:27;98734.00;;;9.79;100.00
46464;BME280;32161;48.148;-1.554;2024-03-02T12:19:54;98725.88;;;9.79;100.00
46464;BME280;32161;48.148;-1.554;2024-03-02T12:22:22;98729.41;;;9.80;100.00
46464;BME280;32161;48.148;-1.554;2024-03-02T12:24:50;98722.34;;;9.79;100.00
46464;BME280;32161;48.148;-1.554;2024-03-02T12:27:18;98731.03;;;9.76;100.00
46464;BME280;32161;48.148;-1.554;2024-03-02T12:29:48;98715.81;;;9.90;100.00
46464;BME280;32161;48.148;-1.554;2024-03-02T12:32:16;98715.28;;;9.88;100.00
46464;BME280;32161;48.148;-1.554;2024-03-02T12:34:47;98718.00;;;9.88;100.00
46464;BME280;32161;48.148;-1.554;2024-03-02T12:37:15;98712.56;;;9.88;100.00
46464;BME280;32161;48.148;-1.554;2024-03-02T12:39:45;98708.22;;;9.92;100.00
46464;BME280;32161;48.148;-1.554;2024-03-02T12:42:13;98700.84;;;10.03;100.00
46464;BME280;32161;48.148;-1.554;2024-03-02T12:44:40;98688.56;;;10.21;100.00
46464;BME280;32161;48.148;-1.554;2024-03-02T12:47:09;98688.28;;;10.17;100.00
46464;BME280;32161;48.148;-1.554;2024-03-02T12:49:40;98691.00;;;10.27;100.00
46464;BME280;32161;48.148;-1.554;2024-03-02T12:52:08;98682.06;;;10.27;100.00
46464;BME280;32161;48.148;-1.554;2024-03-02T12:54:35;98688.00;;;10.34;100.00
46464;BME280;32161;48.148;-1.554;2024-03-02T12:57:03;98687.41;;;10.37;100.00
46464;BME280;32161;48.148;-1.554;2024-03-02T12:59:31;98685.44;;;10.53;100.00